| time (UTC) | temp C | wind direction | speed KPH | gust KPH | rain 1hr cm | rain 24hr cm | rain mn cm | humidity % | barometer mb |
| 20260509224253 | -17 | 200 | 0.0 | 0.0 | 0.00 | 0.00 | 0.00 | 1009.2 | |
| 20260509223749 | -17 | 164 | 0.0 | 0.0 | 0.00 | 0.00 | 0.00 | 1009.5 | |
| 20260509223247 | -17 | 185 | 0.0 | 0.0 | 0.00 | 0.00 | 0.00 | 1009.2 | |
| 20260509222743 | -17 | 164 | 1.6 | 3.2 | 0.00 | 0.00 | 0.00 | 1009.5 | |
| 20260509222239 | -17 | 176 | 3.2 | 3.2 | 0.00 | 0.00 | 0.00 | 1009.5 | |
| 20260509221734 | -17 | 200 | 0.0 | 0.0 | 0.00 | 0.00 | 0.00 | 1009.2 | |
| 20260509221231 | -17 | 171 | 0.0 | 1.6 | 0.00 | 0.00 | 0.00 | 1009.2 | |
| 20260509220727 | -17 | 204 | 1.6 | 1.6 | 0.00 | 0.00 | 0.00 | 1009.2 | |
| 20260509220224 | -17 | 204 | 0.0 | 0.0 | 0.00 | 0.00 | 0.00 | 1009.2 | |
| 20260509215719 | -17 | 204 | 0.0 | 0.0 | 0.00 | 0.00 | 0.00 | 1009.2 | |
| 20260509215216 | -17 | 174 | 3.2 | 4.8 | 0.00 | 0.00 | 0.00 | 1009.5 | |
| 20260509214713 | -17 | 210 | 0.0 | 0.0 | 0.00 | 0.00 | 0.00 | 1009.2 | |
| 20260509214210 | -17 | 209 | 0.0 | 1.6 | 0.00 | 0.00 | 0.00 | 1009.5 | |
| 20260509213707 | -17 | 210 | 0.0 | 1.6 | 0.00 | 0.00 | 0.00 | 1009.5 | |
| 20260509213202 | -17 | 210 | 1.6 | 1.6 | 0.00 | 0.00 | 0.00 | 1009.2 | |
| 20260509212701 | -17 | 237 | 1.6 | 1.6 | 0.00 | 0.00 | 0.00 | 1009.8 | |
| 20260509212157 | -17 | 50 | 4.8 | 4.8 | 0.00 | 0.00 | 0.00 | 1009.8 | |
| 20260509211653 | -17 | 193 | 0.0 | 1.6 | 0.00 | 0.00 | 0.00 | 1009.8 | |
| 20260509211149 | -17 | 135 | 3.2 | 3.2 | 0.00 | 0.00 | 0.00 | 1009.8 | |
| 20260509210646 | -17 | 152 | 1.6 | 3.2 | 0.00 | 0.00 | 0.00 | 1009.8 | |
| 20260509210143 | -17 | 143 | 1.6 | 3.2 | 0.00 | 0.00 | 0.00 | 1009.8 | |
| 20260509205639 | -17 | 196 | 1.6 | 1.6 | 0.00 | 0.00 | 0.00 | 1010.2 | |
| 20260509205133 | -17 | 183 | 1.6 | 1.6 | 0.00 | 0.00 | 0.00 | 1009.8 | |
| 20260509204629 | -17 | 164 | 1.6 | 1.6 | 0.00 | 0.00 | 0.00 | 1009.8 | |
| 20260509204125 | -17 | 144 | 1.6 | 3.2 | 0.00 | 0.00 | 0.00 | 1010.2 | |
| 20260509203622 | -17 | 328 | 1.6 | 1.6 | 0.00 | 0.00 | 0.00 | 1010.2 | |
| 20260509203120 | -17 | 175 | 0.0 | 1.6 | 0.00 | 0.00 | 0.00 | 1010.2 | |
| 20260509202620 | -17 | 160 | 0.0 | 0.0 | 0.00 | 0.00 | 0.00 | 1010.2 | |
| 20260509202115 | -17 | 188 | 3.2 | 3.2 | 0.00 | 0.00 | 0.00 | 1010.2 | |
| 20260509201610 | -17 | 211 | 1.6 | 1.6 | 0.00 | 0.00 | 0.00 | 1010.5 | |
| 20260509201108 | -17 | 249 | 4.8 | 4.8 | 0.00 | 0.00 | 0.00 | 1010.5 | |
| 20260509200603 | -17 | 225 | 3.2 | 3.2 | 0.00 | 0.00 | 0.00 | 1010.5 | |
| 20260509200059 | -17 | 162 | 1.6 | 1.6 | 0.00 | 0.00 | 0.00 | 1010.5 | |
| 20260509195554 | -17 | 184 | 0.0 | 0.0 | 0.00 | 0.00 | 0.00 | 1010.8 | |
| 20260509195050 | -17 | 184 | 0.0 | 1.6 | 0.00 | 0.00 | 0.00 | 1010.8 | |
| 20260509194549 | -17 | 189 | 0.0 | 1.6 | 0.00 | 0.00 | 0.00 | 1010.8 | |
| 20260509194047 | -17 | 144 | 1.6 | 3.2 | 0.00 | 0.00 | 0.00 | 1010.8 | |
| 20260509193542 | -17 | 145 | 0.0 | 0.0 | 0.00 | 0.00 | 0.00 | 1010.8 | |
| 20260509193039 | -17 | 185 | 0.0 | 0.0 | 0.00 | 0.00 | 0.00 | 1010.8 | |
| 20260509192536 | -17 | 184 | 0.0 | 1.6 | 0.00 | 0.00 | 0.00 | 1011.2 | |
| 20260509192031 | -17 | 186 | 1.6 | 3.2 | 0.00 | 0.00 | 0.00 | 1010.8 | |
| 20260509191525 | -17 | 144 | 1.6 | 1.6 | 0.00 | 0.00 | 0.00 | 1010.8 | |
| 20260509191021 | -17 | 150 | 0.0 | 1.6 | 0.00 | 0.00 | 0.00 | 1011.2 | |
| 20260509190519 | -17 | 144 | 1.6 | 3.2 | 0.00 | 0.00 | 0.00 | 1011.2 | |
| 20260509190017 | -17 | 29 | 0.0 | 0.0 | 0.00 | 0.00 | 0.00 | 1010.8 | |
| 20260509185514 | -17 | 27 | 3.2 | 3.2 | 0.00 | 0.00 | 0.00 | 1011.2 | |
| 20260509185010 | -17 | 29 | 1.6 | 3.2 | 0.00 | 0.00 | 0.00 | 1011.2 | |
| 20260509184509 | -17 | 22 | 3.2 | 4.8 | 0.00 | 0.00 | 0.00 | 1011.2 | |
| 20260509184004 | -17 | 345 | 4.8 | 4.8 | 0.00 | 0.00 | 0.00 | 1011.2 | |
| 20260509183459 | -17 | 258 | 4.8 | 8.0 | 0.00 | 0.00 | 0.00 | 1011.2 | |
| 20260509182955 | -17 | 107 | 1.6 | 1.6 | 0.00 | 0.00 | 0.00 | 1011.2 | |
| 20260509182452 | -17 | 96 | 4.8 | 4.8 | 0.00 | 0.00 | 0.00 | 1011.2 | |
| 20260509181949 | -17 | 33 | 4.8 | 4.8 | 0.00 | 0.00 | 0.00 | 1011.5 | |
| 20260509181447 | -17 | 34 | 3.2 | 3.2 | 0.00 | 0.00 | 0.00 | 1011.5 | |
| 20260509180944 | -17 | 119 | 3.2 | 3.2 | 0.00 | 0.00 | 0.00 | 1011.2 | |
| 20260509180440 | -17 | 98 | 4.8 | 4.8 | 0.00 | 0.00 | 0.00 | 1011.5 | |
| 20260509175937 | -17 | 73 | 1.6 | 3.2 | 0.00 | 0.00 | 0.00 | 1011.2 | |
| 20260509175433 | -17 | 100 | 0.0 | 1.6 | 0.00 | 0.00 | 0.00 | 1011.2 | |
| 20260509174929 | -17 | 314 | 1.6 | 3.2 | 0.00 | 0.00 | 0.00 | 1011.5 | |
| 20260509174426 | -17 | 266 | 8.0 | 11.3 | 0.00 | 0.00 | 0.00 | 1011.5 | |
| 20260509173922 | -17 | 66 | 3.2 | 3.2 | 0.00 | 0.00 | 0.00 | 1011.5 | |
| 20260509173421 | -17 | 264 | 4.8 | 4.8 | 0.00 | 0.00 | 0.00 | 1011.5 | |
| 20260509172918 | -17 | 13 | 3.2 | 3.2 | 0.00 | 0.00 | 0.00 | 1011.5 | |
| 20260509172415 | -17 | 38 | 1.6 | 3.2 | 0.00 | 0.00 | 0.00 | 1011.9 | |
| 20260509171911 | -17 | 31 | 4.8 | 4.8 | 0.00 | 0.00 | 0.00 | 1011.9 | |
| 20260509171407 | -17 | 28 | 4.8 | 4.8 | 0.00 | 0.00 | 0.00 | 1011.9 | |
| 20260509170903 | -17 | 347 | 4.8 | 4.8 | 0.00 | 0.00 | 0.00 | 1011.9 | |
| 20260509170359 | -17 | 217 | 0.0 | 1.6 | 0.00 | 0.00 | 0.00 | 1011.9 | |
| 20260509165855 | -17 | 130 | 1.6 | 1.6 | 0.00 | 0.00 | 0.00 | 1011.9 | |
| 20260509165349 | -17 | 46 | 1.6 | 1.6 | 0.00 | 0.00 | 0.00 | 1011.9 | |
| 20260509164845 | -17 | 46 | 0.0 | 0.0 | 0.00 | 0.00 | 0.00 | 1011.9 | |
| 20260509164341 | -17 | 93 | 1.6 | 3.2 | 0.00 | 0.00 | 0.00 | 1011.9 | |
| 20260509163837 | -17 | 178 | 0.0 | 1.6 | 0.00 | 0.00 | 0.00 | 1011.9 | |
| 20260509163334 | -17 | 180 | 0.0 | 0.0 | 0.00 | 0.00 | 0.00 | 1011.9 | |
| 20260509162834 | -17 | 88 | 0.0 | 1.6 | 0.00 | 0.00 | 0.00 | 1011.9 | |
| 20260509162332 | -17 | 48 | 0.0 | 0.0 | 0.00 | 0.00 | 0.00 | 1011.9 | |
| 20260509161829 | -17 | 86 | 0.0 | 0.0 | 0.00 | 0.00 | 0.00 | 1011.9 | |
| 20260509161325 | -17 | 56 | 3.2 | 3.2 | 0.00 | 0.00 | 0.00 | 1011.9 | |
| 20260509160821 | -17 | 81 | 4.8 | 4.8 | 0.00 | 0.00 | 0.00 | 1011.5 | |
| 20260509160316 | -17 | 197 | 0.0 | 0.0 | 0.00 | 0.00 | 0.00 | 1011.5 | |
| 20260509155812 | -17 | 198 | 1.6 | 1.6 | 0.00 | 0.00 | 0.00 | 1011.9 | |
| 20260509155309 | -17 | 198 | 1.6 | 1.6 | 0.00 | 0.00 | 0.00 | 1011.5 | |
| 20260509154805 | -17 | 196 | 0.0 | 0.0 | 0.00 | 0.00 | 0.00 | 1011.5 | |
| 20260509154302 | -17 | 196 | 1.6 | 1.6 | 0.00 | 0.00 | 0.00 | 1011.2 | |
| 20260509153759 | -17 | 195 | 1.6 | 1.6 | 0.00 | 0.00 | 0.00 | 1011.2 | |
| 20260509153255 | -17 | 58 | 1.6 | 3.2 | 0.00 | 0.00 | 0.00 | 1011.5 | |
| 20260509152752 | -17 | 194 | 1.6 | 3.2 | 0.00 | 0.00 | 0.00 | 1011.5 | |
| 20260509152248 | -17 | 194 | 0.0 | 0.0 | 0.00 | 0.00 | 0.00 | 1011.5 | |
| 20260509151745 | -17 | 194 | 1.6 | 1.6 | 0.00 | 0.00 | 0.00 | 1011.2 | |
| 20260509151241 | -17 | 190 | 1.6 | 1.6 | 0.00 | 0.00 | 0.00 | 1011.5 | |
| 20260509150740 | -17 | 187 | 1.6 | 1.6 | 0.00 | 0.00 | 0.00 | 1011.5 | |
| 20260509150238 | -17 | 191 | 1.6 | 1.6 | 0.00 | 0.00 | 0.00 | 1011.5 | |
| 20260509145735 | -17 | 136 | 1.6 | 3.2 | 0.00 | 0.00 | 0.00 | 1011.5 | |
| 20260509145234 | -17 | 93 | 1.6 | 1.6 | 0.00 | 0.00 | 0.00 | 1011.5 | |
| 20260509144731 | -17 | 174 | 1.6 | 1.6 | 0.00 | 0.00 | 0.00 | 1011.5 | |
| 20260509144228 | -17 | 130 | 1.6 | 1.6 | 0.00 | 0.00 | 0.00 | 1011.5 | |
| 20260509143725 | -17 | 147 | 4.8 | 4.8 | 0.00 | 0.00 | 0.00 | 1011.5 | |
| 20260509143223 | -17 | 55 | 3.2 | 3.2 | 0.00 | 0.00 | 0.00 | 1011.5 | |
| 20260509142718 | -17 | 92 | 3.2 | 3.2 | 0.00 | 0.00 | 0.00 | 1011.9 | |
| 20260509142215 | -17 | 63 | 3.2 | 3.2 | 0.00 | 0.00 | 0.00 | 1011.5 | |
| 20260509141710 | -17 | 169 | 1.6 | 1.6 | 0.00 | 0.00 | 0.00 | 1011.5 | |
| 20260509141208 | -17 | 182 | 1.6 | 3.2 | 0.00 | 0.00 | 0.00 | 1011.5 | |
| 20260509140704 | -17 | 63 | 3.2 | 3.2 | 0.00 | 0.00 | 0.00 | 1011.5 | |
| 20260509140202 | -17 | 124 | 0.0 | 0.0 | 0.00 | 0.00 | 0.00 | 1011.5 | |
| 20260509135659 | -17 | 178 | 1.6 | 1.6 | 0.00 | 0.00 | 0.00 | 1011.9 | |
| 20260509135157 | -17 | 72 | 1.6 | 1.6 | 0.00 | 0.00 | 0.00 | 1011.9 | |
| 20260509134653 | -17 | 52 | 1.6 | 3.2 | 0.00 | 0.00 | 0.00 | 1011.9 | |
| 20260509134151 | -17 | 77 | 1.6 | 3.2 | 0.00 | 0.00 | 0.00 | 1011.9 | |
| 20260509133648 | -17 | 129 | 0.0 | 1.6 | 0.00 | 0.00 | 0.00 | 1011.9 | |
| 20260509133145 | -17 | 151 | 0.0 | 0.0 | 0.00 | 0.00 | 0.00 | 1011.5 | |
| 20260509132643 | -17 | 83 | 1.6 | 1.6 | 0.00 | 0.00 | 0.00 | 1011.9 | |
| 20260509132141 | -17 | 189 | 0.0 | 0.0 | 0.00 | 0.00 | 0.00 | 1011.9 | |
| 20260509131637 | -17 | 185 | 0.0 | 1.6 | 0.00 | 0.00 | 0.00 | 1011.9 | |
| 20260509131134 | -17 | 140 | 0.0 | 1.6 | 0.00 | 0.00 | 0.00 | 1011.9 | |
| 20260509130630 | -17 | 122 | 1.6 | 3.2 | 0.00 | 0.00 | 0.00 | 1011.9 | |
| 20260509130126 | -17 | 177 | 1.6 | 1.6 | 0.00 | 0.00 | 0.00 | 1011.9 | |
| 20260509125623 | -17 | 158 | 1.6 | 1.6 | 0.00 | 0.00 | 0.00 | 1011.9 | |
| 20260509125120 | -17 | 179 | 0.0 | 0.0 | 0.00 | 0.00 | 0.00 | 1011.9 | |
| 20260509124616 | -17 | 136 | 1.6 | 1.6 | 0.00 | 0.00 | 0.00 | 1011.9 | |
| 20260509124114 | -17 | 162 | 0.0 | 0.0 | 0.00 | 0.00 | 0.00 | 1011.9 | |
| 20260509123612 | -17 | 169 | 1.6 | 1.6 | 0.00 | 0.00 | 0.00 | 1011.9 | |
| 20260509123108 | -17 | 178 | 0.0 | 0.0 | 0.00 | 0.00 | 0.00 | 1011.9 | |
| 20260509122604 | -17 | 156 | 0.0 | 1.6 | 0.00 | 0.00 | 0.00 | 1011.5 | |
| 20260509122102 | -17 | 137 | 0.0 | 0.0 | 0.00 | 0.00 | 0.00 | 1011.9 | |
| 20260509121558 | -17 | 178 | 0.0 | 0.0 | 0.00 | 0.00 | 0.00 | 1011.9 | |
| 20260509121055 | -17 | 178 | 0.0 | 0.0 | 0.00 | 0.00 | 0.00 | 1011.5 | |
| 20260509120553 | -17 | 178 | 0.0 | 0.0 | 0.00 | 0.00 | 0.00 | 1011.5 | |
| 20260509120052 | -17 | 178 | 0.0 | 0.0 | 0.00 | 0.00 | 0.00 | 1011.2 | |
| 20260509115548 | -17 | 170 | 0.0 | 0.0 | 0.00 | 0.00 | 0.00 | 1011.5 | |
| 20260509115046 | -17 | 145 | 0.0 | 0.0 | 0.00 | 0.00 | 0.00 | 1011.5 | |
| 20260509114544 | -17 | 174 | 1.6 | 1.6 | 0.00 | 0.00 | 0.00 | 1011.2 | |
| 20260509114042 | -17 | 137 | 1.6 | 3.2 | 0.00 | 0.00 | 0.00 | 1011.2 | |
| 20260509113540 | -17 | 170 | 0.0 | 0.0 | 0.00 | 0.00 | 0.00 | 1011.2 | |
| 20260509113038 | -17 | 170 | 0.0 | 1.6 | 0.00 | 0.00 | 0.00 | 1011.2 | |
| 20260509112534 | -17 | 170 | 0.0 | 0.0 | 0.00 | 0.00 | 0.00 | 1010.8 | |
| 20260509112031 | -17 | 100 | 0.0 | 0.0 | 0.00 | 0.00 | 0.00 | 1010.8 | |
| 20260509111528 | -17 | 119 | 0.0 | 0.0 | 0.00 | 0.00 | 0.00 | 1010.8 | |
| 20260509111026 | -17 | 170 | 0.0 | 0.0 | 0.00 | 0.00 | 0.00 | 1010.5 | |
| 20260509110522 | -17 | 171 | 0.0 | 0.0 | 0.00 | 0.00 | 0.00 | 1010.8 | |
| 20260509110019 | -17 | 136 | 0.0 | 0.0 | 0.00 | 0.00 | 0.00 | 1010.8 | |
| 20260509105517 | -17 | 136 | 0.0 | 1.6 | 0.00 | 0.00 | 0.00 | 1010.5 | |
| 20260509105015 | -17 | 76 | 0.0 | 1.6 | 0.00 | 0.00 | 0.00 | 1010.5 | |
| 20260509104511 | -17 | 100 | 3.2 | 3.2 | 0.00 | 0.00 | 0.00 | 1010.5 | |
| 20260509104008 | -17 | 101 | 3.2 | 3.2 | 0.00 | 0.00 | 0.00 | 1010.5 | |
| 20260509103506 | -17 | 89 | 3.2 | 3.2 | 0.00 | 0.00 | 0.00 | 1010.2 | |
| 20260509103004 | -17 | 70 | 3.2 | 3.2 | 0.00 | 0.00 | 0.00 | 1010.5 | |
| 20260509102502 | -17 | 61 | 1.6 | 3.2 | 0.00 | 0.00 | 0.00 | 1010.2 | |
| 20260509101958 | -17 | 90 | 1.6 | 3.2 | 0.00 | 0.00 | 0.00 | 1010.2 | |
| 20260509101454 | -17 | 105 | 1.6 | 1.6 | 0.00 | 0.00 | 0.00 | 1010.2 | |
| 20260509100951 | -17 | 99 | 3.2 | 3.2 | 0.00 | 0.00 | 0.00 | 1010.2 | |
| 20260509100448 | -17 | 86 | 1.6 | 1.6 | 0.00 | 0.00 | 0.00 | 1009.8 | |
| 20260509095945 | -17 | 62 | 3.2 | 4.8 | 0.00 | 0.00 | 0.00 | 1009.8 | |
| 20260509095442 | -17 | 66 | 1.6 | 1.6 | 0.00 | 0.00 | 0.00 | 1009.8 | |
| 20260509094939 | -17 | 103 | 1.6 | 1.6 | 0.00 | 0.00 | 0.00 | 1009.5 | |
| 20260509094435 | -17 | 58 | 3.2 | 3.2 | 0.00 | 0.00 | 0.00 | 1009.8 | |
| 20260509093933 | -17 | 59 | 3.2 | 3.2 | 0.00 | 0.00 | 0.00 | 1009.5 | |
| 20260509093430 | -17 | 191 | 0.0 | 0.0 | 0.00 | 0.00 | 0.00 | 1009.8 | |
| 20260509092928 | -17 | 190 | 0.0 | 0.0 | 0.00 | 0.00 | 0.00 | 1009.5 | |
| 20260509092426 | -17 | 187 | 1.6 | 1.6 | 0.00 | 0.00 | 0.00 | 1009.8 | |
| 20260509091925 | -17 | 190 | 0.0 | 0.0 | 0.00 | 0.00 | 0.00 | 1009.8 | |
| 20260509091421 | -17 | 187 | 0.0 | 1.6 | 0.00 | 0.00 | 0.00 | 1010.2 | |
| 20260509090918 | -17 | 187 | 0.0 | 0.0 | 0.00 | 0.00 | 0.00 | 1009.8 | |
| 20260509090415 | -17 | 187 | 1.6 | 3.2 | 0.00 | 0.00 | 0.00 | 1010.2 | |
| 20260509085913 | -17 | 194 | 1.6 | 1.6 | 0.00 | 0.00 | 0.00 | 1010.2 | |
| 20260509085410 | -17 | 195 | 1.6 | 1.6 | 0.00 | 0.00 | 0.00 | 1010.2 | |
| 20260509084906 | -17 | 196 | 0.0 | 0.0 | 0.00 | 0.00 | 0.00 | 1010.2 | |
| 20260509084403 | -17 | 197 | 0.0 | 0.0 | 0.00 | 0.00 | 0.00 | 1010.2 | |
| 20260509083901 | -17 | 197 | 0.0 | 0.0 | 0.00 | 0.00 | 0.00 | 1010.2 | |
| 20260509083357 | -17 | 197 | 0.0 | 0.0 | 0.00 | 0.00 | 0.00 | 1010.2 | |
| 20260509082854 | -17 | 197 | 0.0 | 0.0 | 0.00 | 0.00 | 0.00 | 1010.2 | |
| 20260509082351 | -17 | 196 | 0.0 | 1.6 | 0.00 | 0.00 | 0.00 | 1010.5 | |
| 20260509081848 | -17 | 196 | 0.0 | 0.0 | 0.00 | 0.00 | 0.00 | 1010.5 | |
| 20260509081345 | -17 | 196 | 0.0 | 0.0 | 0.00 | 0.00 | 0.00 | 1010.5 | |
| 20260509080843 | -17 | 196 | 0.0 | 0.0 | 0.00 | 0.00 | 0.00 | 1010.5 | |
| 20260509080341 | -17 | 196 | 0.0 | 0.0 | 0.00 | 0.00 | 0.00 | 1010.5 | |
| 20260509075839 | -17 | 197 | 0.0 | 0.0 | 0.00 | 0.00 | 0.00 | 1010.5 | |
| 20260509075335 | -17 | 197 | 0.0 | 0.0 | 0.00 | 0.00 | 0.00 | 1010.5 | |
| 20260509074832 | -17 | 197 | 0.0 | 0.0 | 0.00 | 0.00 | 0.00 | 1010.5 | |
| 20260509074330 | -17 | 197 | 0.0 | 0.0 | 0.00 | 0.00 | 0.00 | 1010.5 | |
| 20260509073827 | -17 | 195 | 0.0 | 1.6 | 0.00 | 0.00 | 0.00 | 1010.5 | |
| 20260509073323 | -17 | 194 | 1.6 | 1.6 | 0.00 | 0.00 | 0.00 | 1010.8 | |
| 20260509072820 | -17 | 194 | 3.2 | 3.2 | 0.00 | 0.00 | 0.00 | 1010.8 | |
| 20260509072316 | -17 | 193 | 1.6 | 1.6 | 0.00 | 0.00 | 0.00 | 1011.2 | |
| 20260509071813 | -17 | 191 | 1.6 | 3.2 | 0.00 | 0.00 | 0.00 | 1011.2 | |
| 20260509071310 | -17 | 191 | 1.6 | 1.6 | 0.00 | 0.00 | 0.00 | 1011.2 | |
| 20260509070807 | -17 | 191 | 0.0 | 1.6 | 0.00 | 0.00 | 0.00 | 1011.5 | |
| 20260509070304 | -17 | 191 | 1.6 | 1.6 | 0.00 | 0.00 | 0.00 | 1011.5 | |
| 20260509065800 | -17 | 191 | 0.0 | 0.0 | 0.00 | 0.00 | 0.00 | 1011.9 | |
| 20260509065256 | -17 | 190 | 0.0 | 0.0 | 0.00 | 0.00 | 0.00 | 1011.9 | |
| 20260509064752 | -17 | 188 | 0.0 | 1.6 | 0.00 | 0.00 | 0.00 | 1011.9 | |
| 20260509064250 | -17 | 191 | 0.0 | 0.0 | 0.00 | 0.00 | 0.00 | 1011.9 | |
| 20260509063747 | -17 | 191 | 0.0 | 1.6 | 0.00 | 0.00 | 0.00 | 1011.5 | |
| 20260509063244 | -17 | 191 | 0.0 | 0.0 | 0.00 | 0.00 | 0.00 | 1011.5 | |
| 20260509062741 | -17 | 191 | 0.0 | 0.0 | 0.00 | 0.00 | 0.00 | 1011.5 | |
| 20260509062238 | -17 | 193 | 0.0 | 1.6 | 0.00 | 0.00 | 0.00 | 1011.9 | |
| 20260509061735 | -17 | 193 | 0.0 | 0.0 | 0.00 | 0.00 | 0.00 | 1011.9 | |
| 20260509061233 | -17 | 193 | 0.0 | 0.0 | 0.00 | 0.00 | 0.00 | 1011.9 | |
| 20260509060730 | -17 | 193 | 0.0 | 0.0 | 0.00 | 0.00 | 0.00 | 1011.9 | |
| 20260509060226 | -17 | 193 | 1.6 | 1.6 | 0.00 | 0.00 | 0.00 | 1012.2 | |
| 20260509055722 | -17 | 195 | 0.0 | 0.0 | 0.00 | 0.00 | 0.00 | 1011.9 | |
| 20260509055218 | -17 | 197 | 0.0 | 0.0 | 0.00 | 0.00 | 0.00 | 1011.9 | |
| 20260509054714 | -17 | 138 | 0.0 | 1.6 | 0.00 | 0.00 | 0.00 | 1011.9 | |
| 20260509054212 | -17 | 134 | 1.6 | 1.6 | 0.00 | 0.00 | 0.00 | 1012.2 | |
| 20260509053711 | -17 | 51 | 3.2 | 3.2 | 0.00 | 0.00 | 0.00 | 1012.2 | |
| 20260509053207 | -17 | 101 | 3.2 | 4.8 | 0.00 | 0.00 | 0.00 | 1012.2 | |
| 20260509052705 | -17 | 46 | 4.8 | 4.8 | 0.00 | 0.00 | 0.00 | 1012.2 | |
| 20260509052202 | -17 | 74 | 3.2 | 3.2 | 0.00 | 0.00 | 0.00 | 1012.2 | |
| 20260509051700 | -17 | 157 | 1.6 | 1.6 | 0.00 | 0.00 | 0.00 | 1011.9 | |
| 20260509051157 | -17 | 157 | 3.2 | 3.2 | 0.00 | 0.00 | 0.00 | 1011.9 | |
| 20260509050654 | -17 | 165 | 0.0 | 0.0 | 0.00 | 0.00 | 0.00 | 1011.9 | |
| 20260509050150 | -17 | 175 | 0.0 | 0.0 | 0.00 | 0.00 | 0.00 | 1011.9 | |
| 20260509045648 | -17 | 180 | 0.0 | 0.0 | 0.00 | 1.45 | 1.45 | 1011.5 | |
| 20260509045144 | -17 | 175 | 0.0 | 0.0 | 0.00 | 1.45 | 1.45 | 1011.2 | |
| 20260509044641 | -17 | 182 | 0.0 | 0.0 | 0.00 | 1.45 | 1.45 | 1011.2 | |
| 20260509044139 | -17 | 165 | 1.6 | 1.6 | 0.00 | 1.45 | 1.45 | 1011.2 | |
| 20260509043636 | -17 | 181 | 0.0 | 0.0 | 0.00 | 1.45 | 1.45 | 1011.9 | |
| 20260509043131 | -17 | 178 | 1.6 | 1.6 | 0.00 | 1.45 | 1.45 | 1011.5 | |
| 20260509042628 | -17 | 182 | 0.0 | 1.6 | 0.00 | 1.45 | 1.45 | 1011.5 | |
| 20260509042124 | -17 | 183 | 3.2 | 3.2 | 0.00 | 1.45 | 1.45 | 1011.2 | |
| 20260509041621 | -17 | 181 | 1.6 | 3.2 | 0.00 | 1.45 | 1.45 | 1011.5 | |
| 20260509041118 | -17 | 181 | 1.6 | 3.2 | 0.00 | 1.45 | 1.45 | 1011.5 | |
| 20260509040617 | -17 | 176 | 1.6 | 1.6 | 0.00 | 1.45 | 1.45 | 1010.8 | |
| 20260509040114 | -17 | 180 | 0.0 | 1.6 | 0.00 | 1.45 | 1.45 | 1010.8 | |
| 20260509035610 | -17 | 180 | 1.6 | 1.6 | 0.00 | 1.45 | 1.45 | 1010.5 | |
| 20260509035107 | -17 | 180 | 0.0 | 0.0 | 0.00 | 1.45 | 1.45 | 1009.8 | |
| 20260509034605 | -17 | 175 | 3.2 | 3.2 | 0.00 | 1.45 | 1.45 | 1010.5 | |
| 20260509034101 | -17 | 176 | 0.0 | 0.0 | 0.13 | 1.45 | 1.45 | 1010.5 | |
| 20260509033558 | -17 | 180 | 0.0 | 1.6 | 0.30 | 1.45 | 1.45 | 1010.5 | |
| 20260509033055 | -17 | 179 | 3.2 | 3.2 | 0.18 | 1.42 | 1.42 | 1010.5 | |
| 20260509032553 | -17 | 178 | 1.6 | 1.6 | 0.00 | 1.40 | 1.40 | 1010.5 | |
| 20260509032049 | -17 | 178 | 3.2 | 3.2 | 0.00 | 1.40 | 1.40 | 1010.5 | |
| 20260509031547 | -17 | 176 | 0.0 | 1.6 | 0.00 | 1.40 | 1.40 | 1010.8 | |
| 20260509031044 | -17 | 178 | 0.0 | 0.0 | 0.00 | 1.40 | 1.40 | 1011.2 | |
| 20260509030543 | -17 | 178 | 0.0 | 1.6 | 0.00 | 1.40 | 1.40 | 1010.8 | |
| 20260509030039 | -17 | 178 | 0.0 | 1.6 | 0.00 | 1.40 | 1.40 | 1011.2 | |
| 20260509025535 | -17 | 178 | 1.6 | 1.6 | 0.00 | 1.40 | 1.40 | 1010.8 | |
| 20260509025031 | -17 | 176 | 0.0 | 0.0 | 0.00 | 1.40 | 1.40 | 1011.2 | |
| 20260509024527 | -17 | 176 | 0.0 | 0.0 | 0.00 | 1.40 | 1.40 | 1010.5 | |
| 20260509024023 | -17 | 176 | 0.0 | 0.0 | 0.00 | 1.40 | 1.40 | 1011.2 | |
| 20260509023521 | -17 | 176 | 0.0 | 0.0 | 0.00 | 1.40 | 1.40 | 1010.8 | |
| 20260509023018 | -17 | 176 | 0.0 | 0.0 | 0.00 | 1.40 | 1.40 | 1011.2 | |
| 20260509022514 | -17 | 177 | 0.0 | 0.0 | 0.00 | 1.40 | 1.40 | 1010.8 | |
| 20260509022012 | -17 | 176 | 0.0 | 0.0 | 0.00 | 1.40 | 1.40 | 1010.8 | |
| 20260509021509 | -17 | 176 | 0.0 | 0.0 | 0.00 | 1.40 | 1.40 | 1010.8 | |
| 20260509021006 | -17 | 175 | 0.0 | 1.6 | 0.00 | 1.40 | 1.40 | 1010.2 | |
| 20260509020504 | -17 | 176 | 0.0 | 0.0 | 0.00 | 1.40 | 1.40 | 1010.5 | |
| 20260509020001 | -17 | 176 | 0.0 | 0.0 | 0.13 | 1.40 | 1.40 | 1010.5 | |
| 20260509015500 | -17 | 176 | 0.0 | 0.0 | 0.30 | 1.40 | 1.40 | 1010.2 | |
| 20260509014956 | -17 | 176 | 0.0 | 0.0 | 0.00 | 1.35 | 1.35 | 1010.2 | |
| 20260509014453 | -17 | 176 | 0.0 | 0.0 | 0.00 | 1.35 | 1.35 | 1009.8 | |
| 20260509013949 | -17 | 175 | 0.0 | 0.0 | 0.00 | 1.35 | 1.35 | 1010.2 | |
| 20260509013447 | -17 | 175 | 0.0 | 1.6 | 0.00 | 1.35 | 1.35 | 1010.2 | |
| 20260509012942 | -17 | 177 | 0.0 | 0.0 | 0.00 | 1.35 | 1.35 | 1010.2 | |
| 20260509012439 | -17 | 178 | 0.0 | 0.0 | 0.00 | 1.35 | 1.35 | 1010.2 | |
| 20260509011935 | -17 | 178 | 0.0 | 0.0 | 0.00 | 1.35 | 1.35 | 1010.2 | |
| 20260509011433 | -17 | 178 | 0.0 | 0.0 | 0.00 | 1.35 | 1.35 | 1010.2 | |
| 20260509010930 | -17 | 178 | 0.0 | 0.0 | 0.00 | 1.35 | 1.35 | 1009.5 | |
| 20260509010428 | -17 | 176 | 0.0 | 1.6 | 0.00 | 1.35 | 1.35 | 1009.5 | |
| 20260509005925 | -17 | 176 | 0.0 | 1.6 | 0.00 | 1.35 | 1.35 | 1009.8 | |
| 20260509005423 | -17 | 175 | 1.6 | 1.6 | 0.00 | 1.35 | 1.35 | 1009.8 | |
| 20260509004922 | -17 | 176 | 1.6 | 1.6 | 0.00 | 1.35 | 1.35 | 1009.5 | |
| 20260509004419 | -17 | 175 | 0.0 | 0.0 | 0.00 | 1.35 | 1.35 | 1009.5 | |
| 20260509003917 | -17 | 175 | 0.0 | 0.0 | 0.00 | 1.35 | 1.35 | 1009.5 | |
| 20260509003414 | -17 | 175 | 0.0 | 0.0 | 0.00 | 1.35 | 1.35 | 1009.5 | |
| 20260509002911 | -17 | 175 | 0.0 | 0.0 | 0.00 | 1.35 | 1.35 | 1009.5 | |
| 20260509002409 | -17 | 175 | 0.0 | 1.6 | 0.00 | 1.35 | 1.35 | 1009.5 | |
| 20260509001906 | -17 | 175 | 0.0 | 0.0 | 0.00 | 1.35 | 1.35 | 1009.5 | |
| 20260509001403 | -17 | 175 | 0.0 | 1.6 | 0.00 | 1.35 | 1.35 | 1009.5 | |
| 20260509000900 | -17 | 162 | 0.0 | 0.0 | 0.00 | 1.35 | 1.35 | 1009.5 | |
| 20260509000358 | -17 | 161 | 0.0 | 1.6 | 0.00 | 1.35 | 1.35 | 1009.5 | |
| 20260508235853 | -17 | 195 | 0.0 | 0.0 | 0.00 | 1.35 | 1.35 | 1009.5 | |
| 20260508235351 | -17 | 195 | 0.0 | 1.6 | 0.00 | 1.35 | 1.35 | 1009.5 | |
| 20260508234848 | -17 | 181 | 0.0 | 1.6 | 0.00 | 1.35 | 1.35 | 1009.5 | |
| 20260508234344 | -17 | 181 | 0.0 | 0.0 | 0.00 | 1.35 | 1.35 | 1009.5 | |
| 20260508233843 | -17 | 181 | 0.0 | 0.0 | 0.00 | 1.35 | 1.35 | 1009.5 | |
| 20260508233342 | -17 | 181 | 0.0 | 0.0 | 0.00 | 1.35 | 1.35 | 1009.8 | |
| 20260508232838 | -17 | 181 | 0.0 | 1.6 | 0.00 | 1.35 | 1.35 | 1009.8 | |
| 20260508232334 | -17 | 160 | 4.8 | 4.8 | 0.00 | 1.35 | 1.35 | 1009.8 | |
| 20260508231833 | -17 | 201 | 0.0 | 0.0 | 0.00 | 1.35 | 1.35 | 1009.5 | |
| 20260508231329 | -17 | 189 | 1.6 | 1.6 | 0.00 | 1.35 | 1.35 | 1009.8 | |
| 20260508230826 | -17 | 186 | 1.6 | 1.6 | 0.00 | 1.35 | 1.35 | 1009.5 | |
| 20260508230322 | -17 | 194 | 1.6 | 1.6 | 0.00 | 1.35 | 1.35 | 1009.5 | |
| 20260508225820 | -17 | 184 | 1.6 | 1.6 | 0.00 | 1.35 | 1.35 | 1009.5 | |
| 20260508225316 | -17 | 171 | 1.6 | 1.6 | 0.00 | 1.35 | 1.35 | 1009.2 | |
| 20260508224815 | -17 | 172 | 0.0 | 1.6 | 0.00 | 1.35 | 1.35 | 1009.2 |